createdAt,value
2022-08-24T00:01:18.946Z,2.53
2022-08-24T00:03:46.600Z,2.40
2022-08-24T00:06:17.057Z,2.20
2022-08-24T00:08:44.926Z,2.17
2022-08-24T00:11:11.655Z,2.00
2022-08-24T00:13:39.596Z,2.30
2022-08-24T00:16:07.635Z,2.10
2022-08-24T00:18:34.603Z,2.33
2022-08-24T00:21:02.149Z,2.20
2022-08-24T00:23:29.625Z,2.10
2022-08-24T00:25:56.685Z,1.90
2022-08-24T00:28:23.917Z,1.80
2022-08-24T00:30:50.891Z,2.13
2022-08-24T00:33:17.825Z,2.10
2022-08-24T00:35:44.895Z,2.00
2022-08-24T00:38:12.141Z,1.93
2022-08-24T00:40:42.104Z,2.10
2022-08-24T00:43:11.200Z,2.27
2022-08-24T00:45:44.781Z,2.10
2022-08-24T00:48:26.254Z,2.07
2022-08-24T00:51:22.058Z,2.30
2022-08-24T00:53:54.935Z,2.10
2022-08-24T00:56:26.511Z,1.93
2022-08-24T00:58:58.147Z,1.90
2022-08-24T01:01:26.184Z,2.27
2022-08-24T01:03:56.827Z,2.10
2022-08-24T01:06:24.450Z,2.07
2022-08-24T01:08:56.389Z,2.00
2022-08-24T01:11:27.482Z,2.43
2022-08-24T01:13:58.073Z,2.07
2022-08-24T01:16:43.467Z,1.80
2022-08-24T01:19:22.870Z,2.13
2022-08-24T01:22:28.271Z,2.40
2022-08-24T01:24:55.132Z,2.27
2022-08-24T01:27:27.906Z,2.30
2022-08-24T01:29:56.276Z,2.20
2022-08-24T01:32:24.572Z,2.23
2022-08-24T01:34:51.556Z,2.40
2022-08-24T01:37:18.313Z,2.40
2022-08-24T01:39:46.800Z,2.03
2022-08-24T01:42:14.505Z,2.30
2022-08-24T01:44:43.514Z,2.40
2022-08-24T01:47:11.911Z,2.17
2022-08-24T01:49:42.665Z,2.17
2022-08-24T01:52:12.728Z,2.10
2022-08-24T01:54:40.373Z,2.37
2022-08-24T01:57:10.818Z,2.20
2022-08-24T01:59:41.928Z,2.20
2022-08-24T02:02:21.124Z,2.40
2022-08-24T02:04:47.962Z,2.50
2022-08-24T02:07:14.723Z,2.40
2022-08-24T02:09:41.599Z,2.20
2022-08-24T02:12:09.168Z,2.60
2022-08-24T02:14:36.964Z,2.40
2022-08-24T02:17:08.289Z,2.50
2022-08-24T02:19:35.979Z,2.40
2022-08-24T02:22:02.832Z,2.33
2022-08-24T02:24:29.641Z,2.77
2022-08-24T02:26:56.855Z,2.10
2022-08-24T02:29:24.303Z,2.27
2022-08-24T02:31:51.336Z,2.40
2022-08-24T02:34:18.203Z,2.60
2022-08-24T02:36:45.790Z,2.50
2022-08-24T02:39:12.630Z,2.40
2022-08-24T02:41:39.648Z,2.60
2022-08-24T02:44:07.176Z,2.30
2022-08-24T02:46:34.868Z,2.10
2022-08-24T02:49:10.519Z,2.60
2022-08-24T02:51:44.980Z,2.37
2022-08-24T02:54:18.418Z,2.47
2022-08-24T02:56:47.685Z,2.30
2022-08-24T02:59:16.323Z,2.37
2022-08-24T03:01:43.968Z,2.27
2022-08-24T03:04:12.128Z,2.30
2022-08-24T03:06:42.930Z,2.30
2022-08-24T03:09:10.842Z,2.80
2022-08-24T03:11:38.296Z,2.63
2022-08-24T03:14:05.641Z,2.90
2022-08-24T03:16:32.792Z,3.00
2022-08-24T03:19:00.711Z,3.00
2022-08-24T03:21:30.297Z,3.20
2022-08-24T03:23:57.156Z,2.80
2022-08-24T03:26:23.909Z,3.07
2022-08-24T03:28:52.539Z,2.77
2022-08-24T03:31:19.955Z,2.60
2022-08-24T03:33:48.391Z,2.77
2022-08-24T03:36:15.396Z,2.57
2022-08-24T03:38:43.543Z,2.70
2022-08-24T03:41:11.400Z,2.53
2022-08-24T03:43:48.999Z,2.57
2022-08-24T03:46:22.277Z,2.37
2022-08-24T03:48:52.607Z,2.80
2022-08-24T03:51:25.082Z,2.77
2022-08-24T03:53:52.664Z,3.10
2022-08-24T03:56:22.423Z,2.70
2022-08-24T03:58:49.506Z,2.70
2022-08-24T04:01:17.806Z,2.80
2022-08-24T04:03:46.992Z,2.70
2022-08-24T04:06:16.618Z,3.00
2022-08-24T04:08:43.969Z,2.47
2022-08-24T04:11:13.000Z,2.60
2022-08-24T04:13:40.713Z,2.40
2022-08-24T04:16:08.930Z,2.20
2022-08-24T04:18:36.086Z,2.57
2022-08-24T04:21:03.620Z,2.40
2022-08-24T04:23:47.013Z,2.20
2022-08-24T04:26:26.788Z,2.70
2022-08-24T04:29:08.095Z,2.50
2022-08-24T04:31:40.662Z,2.40
2022-08-24T04:34:08.305Z,2.73
2022-08-24T04:36:35.588Z,2.50
2022-08-24T04:39:03.579Z,2.63
2022-08-24T04:42:03.147Z,2.40
2022-08-24T04:44:34.887Z,2.43
2022-08-24T04:47:01.828Z,2.47
2022-08-24T04:49:29.903Z,2.73
2022-08-24T04:51:56.897Z,2.40
2022-08-24T04:54:24.814Z,2.50
2022-08-24T04:57:06.062Z,2.70
2022-08-24T04:59:33.099Z,2.83
2022-08-24T05:02:00.033Z,2.67
2022-08-24T05:04:27.046Z,2.57
2022-08-24T05:06:54.503Z,2.53
2022-08-24T05:09:24.268Z,3.10
2022-08-24T05:11:51.232Z,2.70
2022-08-24T05:14:25.665Z,2.33
2022-08-24T05:16:55.482Z,2.47
2022-08-24T05:19:23.538Z,2.97
2022-08-24T05:21:51.018Z,3.00
2022-08-24T05:24:19.659Z,2.73
2022-08-24T05:26:46.651Z,2.93
2022-08-24T05:29:14.614Z,2.60
2022-08-24T05:31:46.559Z,2.80
2022-08-24T05:34:14.626Z,3.00
2022-08-24T05:36:42.634Z,3.20
2022-08-24T05:39:17.178Z,3.40
2022-08-24T05:41:51.926Z,3.60
2022-08-24T05:44:27.888Z,3.30
2022-08-24T05:46:59.493Z,3.70
2022-08-24T05:49:26.473Z,3.50
2022-08-24T05:51:53.980Z,4.03
2022-08-24T05:54:22.924Z,4.10
2022-08-24T05:56:55.485Z,4.23
2022-08-24T05:59:23.454Z,3.47
2022-08-24T06:01:51.714Z,3.63
2022-08-24T06:04:18.466Z,3.33
2022-08-24T06:06:48.799Z,3.33
2022-08-24T06:09:16.659Z,3.60
2022-08-24T06:11:45.676Z,3.47
2022-08-24T06:14:15.759Z,4.03
2022-08-24T06:16:52.614Z,4.00
2022-08-24T06:19:20.407Z,4.73
2022-08-24T06:21:49.479Z,5.07
2022-08-24T06:24:16.915Z,5.77
2022-08-24T06:27:04.232Z,5.80
2022-08-24T06:29:34.010Z,6.37
2022-08-24T06:32:21.635Z,7.87
2022-08-24T06:34:48.525Z,8.17
2022-08-24T06:37:16.758Z,10.43
2022-08-24T06:39:44.010Z,8.50
2022-08-24T06:42:11.061Z,8.77
2022-08-24T06:44:43.137Z,9.43
2022-08-24T06:47:18.988Z,8.70
2022-08-24T06:49:45.980Z,8.53
2022-08-24T06:52:13.014Z,8.40
2022-08-24T06:54:39.893Z,9.20
2022-08-24T06:57:07.186Z,11.00
2022-08-24T06:59:34.083Z,9.23
2022-08-24T07:02:01.539Z,9.97
2022-08-24T07:04:29.454Z,11.90
2022-08-24T07:07:19.406Z,12.27
2022-08-24T07:09:46.102Z,14.63
2022-08-24T07:12:12.820Z,11.87
2022-08-24T07:14:39.557Z,11.47
2022-08-24T07:17:06.910Z,11.43
2022-08-24T07:19:33.662Z,12.83
2022-08-24T07:22:01.287Z,12.60
2022-08-24T07:24:31.094Z,11.83
2022-08-24T07:26:57.767Z,12.10
2022-08-24T07:29:46.272Z,13.57
2022-08-24T07:32:13.144Z,12.90
2022-08-24T07:34:43.825Z,12.60
2022-08-24T07:37:10.548Z,13.40
2022-08-24T07:39:41.095Z,12.23
2022-08-24T07:42:13.870Z,12.43
2022-08-24T07:44:50.037Z,11.00
2022-08-24T07:50:08.418Z,14.50
2022-08-24T07:52:35.423Z,14.03
2022-08-24T07:55:02.360Z,15.43
2022-08-24T07:57:30.114Z,14.03
2022-08-24T08:00:00.823Z,14.70
2022-08-24T08:02:30.822Z,12.60
2022-08-24T08:05:03.960Z,13.70
2022-08-24T08:07:33.596Z,14.53
2022-08-24T08:10:05.229Z,13.93
2022-08-24T08:12:32.697Z,15.53
2022-08-24T08:15:04.663Z,13.93
2022-08-24T08:17:35.081Z,14.13
2022-08-24T08:20:05.806Z,13.70
2022-08-24T08:22:54.715Z,14.40
2022-08-24T08:25:54.962Z,12.13
2022-08-24T08:28:35.620Z,11.80
2022-08-24T08:31:05.329Z,14.37
2022-08-24T08:33:39.065Z,12.00
2022-08-24T08:36:17.923Z,11.80
2022-08-24T08:38:49.852Z,11.63
2022-08-24T08:41:42.402Z,10.40
2022-08-24T08:44:34.858Z,10.97
2022-08-24T08:47:11.406Z,10.17
2022-08-24T08:50:05.594Z,11.97
2022-08-24T08:53:04.799Z,12.27
2022-08-24T08:55:54.926Z,11.17
2022-08-24T08:58:33.834Z,8.83
2022-08-24T09:01:16.261Z,10.70
2022-08-24T09:04:05.315Z,9.83
2022-08-24T09:07:17.291Z,10.83
2022-08-24T09:10:10.093Z,10.13
2022-08-24T09:12:52.897Z,10.13
2022-08-24T09:15:47.755Z,10.40
2022-08-24T09:18:28.293Z,9.67
2022-08-24T09:21:14.337Z,8.97
2022-08-24T09:24:05.559Z,9.50
2022-08-24T09:27:16.118Z,9.87
2022-08-24T09:29:54.266Z,7.43
2022-08-24T09:32:59.851Z,5.83
2022-08-24T09:35:54.510Z,5.80
2022-08-24T09:38:42.695Z,5.23
2022-08-24T09:41:20.320Z,7.80
2022-08-24T09:44:17.145Z,4.83
2022-08-24T09:47:02.688Z,3.70
2022-08-24T09:49:38.671Z,5.20
2022-08-24T09:52:24.103Z,3.80
2022-08-24T09:55:00.055Z,3.37
2022-08-24T09:57:50.441Z,2.60
2022-08-24T10:00:30.800Z,3.20
2022-08-24T10:03:00.956Z,3.03
2022-08-24T10:05:36.827Z,3.37
2022-08-24T10:08:20.417Z,3.37
2022-08-24T10:11:04.827Z,3.13
2022-08-24T10:13:53.174Z,3.80
2022-08-24T10:16:44.922Z,3.10
2022-08-24T10:19:16.281Z,3.83
2022-08-24T10:21:48.211Z,2.93
2022-08-24T10:24:40.237Z,3.50
2022-08-24T10:27:31.778Z,3.47
2022-08-24T10:30:24.513Z,2.23
2022-08-24T10:33:13.687Z,1.70
2022-08-24T10:36:11.047Z,1.80
2022-08-24T10:39:16.144Z,1.50
2022-08-24T10:41:55.235Z,3.00
2022-08-24T10:44:38.671Z,2.73
2022-08-24T10:47:30.983Z,2.57
2022-08-24T10:50:17.598Z,1.40
2022-08-24T10:53:07.820Z,1.60
2022-08-24T10:55:35.747Z,1.27
2022-08-24T10:58:14.888Z,1.40
2022-08-24T11:00:42.311Z,1.20
2022-08-24T11:03:13.860Z,1.23
2022-08-24T11:05:45.553Z,1.20
2022-08-24T11:08:22.087Z,1.10
2022-08-24T11:11:13.789Z,1.23
2022-08-24T11:14:04.592Z,1.37
2022-08-24T11:16:38.060Z,1.13
2022-08-24T11:19:13.288Z,1.20
2022-08-24T11:21:45.884Z,1.33
2022-08-24T11:24:18.986Z,1.20
2022-08-24T11:26:53.780Z,1.30
2022-08-24T11:29:25.581Z,1.10
2022-08-24T11:31:52.913Z,1.10
2022-08-24T11:34:32.858Z,1.13
2022-08-24T11:37:00.314Z,1.07
2022-08-24T11:39:34.730Z,1.40
2022-08-24T11:42:04.330Z,1.40
2022-08-24T11:44:54.634Z,1.10
2022-08-24T11:47:49.462Z,1.30
2022-08-24T11:50:22.598Z,1.53
2022-08-24T11:53:12.314Z,1.40
2022-08-24T11:56:15.426Z,1.57
2022-08-24T11:58:55.468Z,1.80
2022-08-24T12:01:24.663Z,1.57
2022-08-24T12:04:10.001Z,1.50
2022-08-24T12:06:41.725Z,1.23
2022-08-24T12:09:17.365Z,1.40
2022-08-24T12:12:02.529Z,1.40
2022-08-24T12:14:54.979Z,1.40
2022-08-24T12:17:34.149Z,1.20
2022-08-24T12:20:06.260Z,1.40
2022-08-24T12:22:33.376Z,1.50
2022-08-24T12:25:23.785Z,1.80
2022-08-24T12:27:52.182Z,1.50
2022-08-24T12:30:19.016Z,1.30
2022-08-24T12:32:49.321Z,1.13
2022-08-24T12:35:23.962Z,1.17
2022-08-24T12:38:12.846Z,1.43
2022-08-24T12:40:53.453Z,1.30
2022-08-24T12:43:37.997Z,1.60
2022-08-24T12:46:06.806Z,1.20
2022-08-24T12:48:45.578Z,1.67
2022-08-24T12:52:09.057Z,1.83
2022-08-24T12:54:57.820Z,1.40
2022-08-24T12:58:30.874Z,1.67
2022-08-24T13:00:53.302Z,1.60
2022-08-24T13:03:38.254Z,1.70
2022-08-24T13:06:18.897Z,1.50
2022-08-24T13:08:49.300Z,1.30
2022-08-24T13:11:31.725Z,1.70
2022-08-24T13:14:22.004Z,1.83
2022-08-24T13:16:57.870Z,2.33
2022-08-24T13:19:31.190Z,3.47
2022-08-24T13:22:27.177Z,4.40
2022-08-24T13:25:02.770Z,22.70
2022-08-24T13:27:35.854Z,1.90
2022-08-24T13:30:17.887Z,1.73
2022-08-24T13:32:49.967Z,1.80
2022-08-24T13:36:07.935Z,2.00
2022-08-24T13:38:35.294Z,1.87
2022-08-24T13:41:08.429Z,1.70
2022-08-24T13:43:44.773Z,1.67
2022-08-24T13:46:22.801Z,1.43
2022-08-24T13:49:15.687Z,1.60
2022-08-24T13:51:47.286Z,1.60
2022-08-24T13:54:25.160Z,1.77
2022-08-24T13:57:14.969Z,1.50
2022-08-24T14:00:15.446Z,1.80
2022-08-24T14:03:17.478Z,1.83
2022-08-24T14:05:57.731Z,1.80
2022-08-24T14:08:51.145Z,1.60
2022-08-24T14:11:21.190Z,1.70
2022-08-24T14:14:30.976Z,1.83
2022-08-24T14:17:40.670Z,1.77
2022-08-24T14:20:10.103Z,1.67
2022-08-24T14:22:57.240Z,1.80
2022-08-24T14:25:30.321Z,1.60
2022-08-24T14:28:02.621Z,1.57
2022-08-24T14:30:29.640Z,1.77
2022-08-24T14:33:01.662Z,1.60
2022-08-24T14:35:36.078Z,2.00
2022-08-24T14:38:14.669Z,1.60
2022-08-24T14:41:19.919Z,1.53
2022-08-24T14:44:26.159Z,1.60
2022-08-24T14:47:41.085Z,1.60
2022-08-24T14:50:14.667Z,1.30
2022-08-24T14:52:56.627Z,1.80
2022-08-24T14:55:32.601Z,1.60
2022-08-24T14:58:32.965Z,1.47
2022-08-24T15:01:17.665Z,1.90
2022-08-24T15:04:30.759Z,1.50
2022-08-24T15:07:23.682Z,1.57
2022-08-24T15:09:51.564Z,1.43
2022-08-24T15:12:49.938Z,2.20
2022-08-24T15:15:40.166Z,1.43
2022-08-24T15:18:28.372Z,1.30
2022-08-24T15:21:15.854Z,1.40
2022-08-24T15:23:46.194Z,1.40
2022-08-24T15:26:23.716Z,1.53
2022-08-24T15:28:56.575Z,1.63
2022-08-24T15:31:29.157Z,1.50
2022-08-24T15:34:03.727Z,1.73
2022-08-24T15:36:33.986Z,1.50
2022-08-24T15:39:04.013Z,1.53
2022-08-24T15:41:38.335Z,1.77
2022-08-24T15:44:07.408Z,2.10
2022-08-24T15:46:49.289Z,1.33
2022-08-24T15:49:21.718Z,1.73
2022-08-24T15:51:53.487Z,1.70
2022-08-24T15:54:24.951Z,1.70
2022-08-24T15:57:02.401Z,1.67
2022-08-24T15:59:33.033Z,1.30
2022-08-24T16:02:28.673Z,1.70
2022-08-24T16:05:01.733Z,1.67
2022-08-24T16:07:44.426Z,1.70
2022-08-24T16:10:12.970Z,1.57
2022-08-24T16:12:39.999Z,1.70
2022-08-24T16:15:17.568Z,1.53
2022-08-24T16:17:56.076Z,1.60
2022-08-24T16:20:23.228Z,1.60
2022-08-24T16:23:30.404Z,1.37
2022-08-24T16:26:49.804Z,1.50
2022-08-24T16:29:36.572Z,1.70
2022-08-24T16:32:21.188Z,1.60
2022-08-24T16:35:20.653Z,1.70
2022-08-24T16:37:48.844Z,1.50
2022-08-24T16:40:16.908Z,2.83
2022-08-24T16:42:43.806Z,1.87
2022-08-24T16:45:14.944Z,1.73
2022-08-24T16:47:41.880Z,1.63
2022-08-24T16:50:08.923Z,1.70
2022-08-24T16:52:35.604Z,1.60
2022-08-24T16:55:02.463Z,1.70
2022-08-24T16:57:31.806Z,1.60
2022-08-24T16:59:58.673Z,1.60
2022-08-24T17:02:28.622Z,1.50
2022-08-24T17:04:56.201Z,1.80
2022-08-24T17:07:25.839Z,1.60
2022-08-24T17:09:53.425Z,1.70
2022-08-24T17:12:21.211Z,1.57
2022-08-24T17:14:48.246Z,1.67
2022-08-24T17:17:26.221Z,1.50
2022-08-24T17:19:54.744Z,1.87
2022-08-24T17:22:25.544Z,1.40
2022-08-24T17:24:52.580Z,1.70
2022-08-24T17:27:21.373Z,1.57
2022-08-24T17:29:48.037Z,1.40
2022-08-24T17:32:15.073Z,1.70
2022-08-24T17:34:42.544Z,1.50
2022-08-24T17:37:10.619Z,1.53
2022-08-24T17:39:37.625Z,1.43
2022-08-24T17:42:16.506Z,1.80
2022-08-24T17:44:52.108Z,1.40
2022-08-24T17:47:21.327Z,1.80
2022-08-24T17:49:48.650Z,1.60
2022-08-24T17:52:15.377Z,1.73
2022-08-24T17:54:42.183Z,1.90
2022-08-24T17:57:15.205Z,1.63
2022-08-24T17:59:43.797Z,2.53
2022-08-24T18:02:15.017Z,2.20
2022-08-24T18:04:43.938Z,3.10
2022-08-24T18:07:16.682Z,2.50
2022-08-24T18:09:54.294Z,1.80
2022-08-24T18:12:24.210Z,1.70
2022-08-24T18:14:52.388Z,1.93
2022-08-24T18:17:22.894Z,1.80
2022-08-24T18:19:50.473Z,1.83
2022-08-24T18:22:17.397Z,1.67
2022-08-24T18:24:44.738Z,1.57
2022-08-24T18:27:21.489Z,1.70
2022-08-24T18:29:54.764Z,2.13
2022-08-24T18:32:21.832Z,1.47
2022-08-24T18:34:48.924Z,1.57
2022-08-24T18:37:15.768Z,2.07
2022-08-24T18:39:42.708Z,1.70
2022-08-24T18:42:10.887Z,1.80
2022-08-24T18:44:40.066Z,1.80
2022-08-24T18:47:07.368Z,2.00
2022-08-24T18:49:35.586Z,1.83
2022-08-24T18:52:03.168Z,1.70
2022-08-24T18:54:35.721Z,1.67
2022-08-24T18:57:04.167Z,2.00
2022-08-24T18:59:40.951Z,2.30
2022-08-24T19:02:35.451Z,2.03
2022-08-24T19:05:11.217Z,1.83
2022-08-24T19:07:41.739Z,2.17
2022-08-24T19:10:11.333Z,1.77
2022-08-24T19:12:46.852Z,1.67
2022-08-24T19:15:32.028Z,2.10
2022-08-24T19:18:05.388Z,1.80
2022-08-24T19:20:35.625Z,2.13
2022-08-24T19:23:09.477Z,2.47
2022-08-24T19:25:37.553Z,1.97
2022-08-24T19:28:04.839Z,2.20
2022-08-24T19:30:31.742Z,1.90
2022-08-24T19:32:59.407Z,2.23
2022-08-24T19:35:26.275Z,1.67
2022-08-24T19:37:53.008Z,2.07
2022-08-24T19:40:22.663Z,2.30
2022-08-24T19:42:51.222Z,2.00
2022-08-24T19:45:39.375Z,2.00
2022-08-24T19:48:06.276Z,2.43
2022-08-24T19:50:35.865Z,2.10
2022-08-24T19:53:04.603Z,2.07
2022-08-24T19:55:32.606Z,2.10
2022-08-24T19:58:23.557Z,2.00
2022-08-24T20:01:06.057Z,1.80
2022-08-24T20:03:36.187Z,2.20
2022-08-24T20:06:03.088Z,2.20
2022-08-24T20:08:29.859Z,2.40
2022-08-24T20:10:59.016Z,2.40
2022-08-24T20:13:26.515Z,2.07
2022-08-24T20:15:54.330Z,2.42
2022-08-24T20:18:26.469Z,2.17
2022-08-24T20:20:53.258Z,1.90
2022-08-24T20:23:20.195Z,2.67
2022-08-24T20:25:49.333Z,2.37
2022-08-24T20:28:37.362Z,2.73
2022-08-24T20:31:04.173Z,2.30
2022-08-24T20:33:31.471Z,2.07
2022-08-24T20:35:58.799Z,1.97
2022-08-24T20:38:26.582Z,2.30
2022-08-24T20:41:00.316Z,2.00
2022-08-24T20:43:28.342Z,2.57
2022-08-24T20:45:58.311Z,2.43
2022-08-24T20:48:29.095Z,2.40
2022-08-24T20:50:56.604Z,2.13
2022-08-24T20:53:23.692Z,2.40
2022-08-24T20:55:50.560Z,2.50
2022-08-24T20:58:20.227Z,2.17
2022-08-24T21:00:47.696Z,2.60
2022-08-24T21:03:16.220Z,2.40
2022-08-24T21:05:43.602Z,2.37
2022-08-24T21:08:11.769Z,2.17
2022-08-24T21:10:42.611Z,2.17
2022-08-24T21:13:09.727Z,1.93
2022-08-24T21:15:40.812Z,2.13
2022-08-24T21:18:11.007Z,2.37
2022-08-24T21:20:38.563Z,2.30
2022-08-24T21:23:11.474Z,2.10
2022-08-24T21:25:38.582Z,2.13
2022-08-24T21:28:05.875Z,2.37
2022-08-24T21:30:35.532Z,2.40
2022-08-24T21:33:24.403Z,2.30
2022-08-24T21:35:54.949Z,2.40
2022-08-24T21:38:25.648Z,2.03
2022-08-24T21:40:52.634Z,2.30
2022-08-24T21:43:25.026Z,2.50
2022-08-24T21:46:21.456Z,2.30
2022-08-24T21:49:11.978Z,2.47
2022-08-24T21:51:39.850Z,1.93
2022-08-24T21:54:06.739Z,2.23
2022-08-24T21:56:34.791Z,2.40
2022-08-24T21:59:02.887Z,2.80
2022-08-24T22:01:29.712Z,2.40
2022-08-24T22:03:58.293Z,2.50
2022-08-24T22:06:29.238Z,2.20
2022-08-24T22:09:03.661Z,2.37
2022-08-24T22:11:31.171Z,2.00
2022-08-24T22:13:57.867Z,2.33
2022-08-24T22:16:26.015Z,2.17
2022-08-24T22:18:53.933Z,2.40
2022-08-24T22:21:23.688Z,1.93
2022-08-24T22:23:50.558Z,2.30
2022-08-24T22:26:17.699Z,2.30
2022-08-24T22:28:45.108Z,2.50
2022-08-24T22:31:21.834Z,2.10
2022-08-24T22:33:49.786Z,2.40
2022-08-24T22:36:17.243Z,2.50
2022-08-24T22:38:44.906Z,2.40
2022-08-24T22:41:11.916Z,2.43
2022-08-24T22:43:57.859Z,2.93
2022-08-24T22:46:28.177Z,2.40
2022-08-24T22:48:55.324Z,2.80
2022-08-24T22:51:23.797Z,2.50
2022-08-24T22:53:50.741Z,2.90
2022-08-24T22:56:28.840Z,2.40
2022-08-24T22:58:56.448Z,2.40
2022-08-24T23:01:27.318Z,2.63
2022-08-24T23:03:55.399Z,2.40
2022-08-24T23:06:22.251Z,2.43
2022-08-24T23:08:49.140Z,2.80
2022-08-24T23:11:16.269Z,2.83
2022-08-24T23:13:43.154Z,2.50
2022-08-24T23:16:13.094Z,3.03
2022-08-24T23:18:59.151Z,2.60
2022-08-24T23:21:26.237Z,2.53
2022-08-24T23:23:58.936Z,2.70
2022-08-24T23:26:26.001Z,2.47
2022-08-24T23:28:52.837Z,2.37
2022-08-24T23:31:21.797Z,2.73
2022-08-24T23:33:48.677Z,2.50
2022-08-24T23:36:21.043Z,2.80
2022-08-24T23:38:49.621Z,2.70
2022-08-24T23:41:18.514Z,2.43
2022-08-24T23:43:45.259Z,2.57
2022-08-24T23:46:12.255Z,2.40
2022-08-24T23:48:40.577Z,2.70
2022-08-24T23:51:12.508Z,2.73
2022-08-24T23:53:46.569Z,2.80
2022-08-24T23:56:21.007Z,2.80
2022-08-24T23:58:49.994Z,2.90
